Time;durP1;ratioP1;P1;durP2;ratioP2;P2;SDS_P1;SDS_P2;PMS_P1;PMS_P2;Temp;Humidity;BMP_temperature;BMP_pressure;BME280_temperature;BME280_humidity;BME280_pressure;Samples;Min_cycle;Max_cycle;Signal;HPM_P1;HPM_P2
2021/08/13 00:00:45;;;;;;;7.20;6.13;;;24.50;62.60;;;;;;3133752;28;20048;-75
2021/08/13 00:02:17;;;;;;;6.75;6.15;;;24.50;62.60;;;;;;3135107;28;20049;-75
2021/08/13 00:03:48;;;;;;;6.28;5.68;;;24.50;62.60;;;;;;3135061;28;20049;-75
2021/08/13 00:05:20;;;;;;;6.40;5.78;;;24.50;62.60;;;;;;3134359;28;20114;-75
2021/08/13 00:06:52;;;;;;;8.00;6.43;;;24.50;62.60;;;;;;3134884;28;20049;-75
2021/08/13 00:08:25;;;;;;;7.10;6.40;;;24.50;62.60;;;;;;3134959;28;20061;-75
2021/08/13 00:09:57;;;;;;;7.20;6.50;;;24.50;62.60;;;;;;3134339;28;20422;-75
2021/08/13 00:11:28;;;;;;;7.25;6.47;;;24.50;62.60;;;;;;3134499;28;20065;-75
2021/08/13 00:13:00;;;;;;;6.68;6.05;;;24.50;62.60;;;;;;3135055;28;20053;-75
2021/08/13 00:14:32;;;;;;;6.65;5.93;;;24.50;62.60;;;;;;3134203;28;20636;-75
2021/08/13 00:16:04;;;;;;;7.00;6.28;;;24.50;62.60;;;;;;3133861;28;20044;-75
2021/08/13 00:17:35;;;;;;;6.47;5.88;;;24.50;62.70;;;;;;3134990;28;20083;-75
2021/08/13 00:19:07;;;;;;;6.70;6.07;;;24.50;62.60;;;;;;3135022;28;20053;-75
2021/08/13 00:20:39;;;;;;;7.15;6.45;;;24.50;62.70;;;;;;3134602;28;20053;-75
2021/08/13 00:22:11;;;;;;;6.90;6.20;;;24.50;62.70;;;;;;3134894;28;20049;-75
2021/08/13 00:23:44;;;;;;;6.68;6.07;;;24.50;62.70;;;;;;3136564;28;20045;-75
2021/08/13 00:25:16;;;;;;;6.82;6.22;;;24.50;62.70;;;;;;3135308;28;20041;-75
2021/08/13 00:26:47;;;;;;;6.55;5.88;;;24.50;62.60;;;;;;3136245;28;20461;-75
2021/08/13 00:28:19;;;;;;;6.43;5.82;;;24.50;62.60;;;;;;3136462;28;20424;-75
2021/08/13 00:29:51;;;;;;;6.93;6.25;;;24.50;62.60;;;;;;3135601;28;20049;-75
2021/08/13 00:31:22;;;;;;;6.90;6.30;;;24.50;62.70;;;;;;3134669;28;20048;-75
2021/08/13 00:32:54;;;;;;;7.35;6.65;;;24.50;62.80;;;;;;3137823;28;20049;-75
2021/08/13 00:34:26;;;;;;;6.45;5.80;;;24.50;62.80;;;;;;3137945;28;20053;-76
2021/08/13 00:35:58;;;;;;;6.90;6.28;;;24.50;62.90;;;;;;3138548;28;20456;-75
2021/08/13 00:37:31;;;;;;;8.35;6.65;;;24.40;62.80;;;;;;3139109;28;20045;-75
2021/08/13 00:39:04;;;;;;;6.93;6.22;;;24.50;62.90;;;;;;3138120;28;20055;-75
2021/08/13 00:40:35;;;;;;;7.30;6.60;;;24.50;62.90;;;;;;3137931;28;20107;-75
2021/08/13 00:42:07;;;;;;;8.95;6.05;;;24.50;62.90;;;;;;3138740;28;20060;-75
2021/08/13 00:43:39;;;;;;;6.22;5.72;;;24.50;62.90;;;;;;3138496;28;20049;-75
2021/08/13 00:45:11;;;;;;;7.03;6.32;;;24.50;62.90;;;;;;3136572;28;20083;-75
2021/08/13 00:46:43;;;;;;;7.05;6.35;;;24.50;62.90;;;;;;3138583;28;20057;-75
2021/08/13 00:48:15;;;;;;;6.70;6.00;;;24.50;63.60;;;;;;3138394;28;20098;-75
2021/08/13 00:49:47;;;;;;;6.75;6.07;;;24.50;62.90;;;;;;3138167;28;20048;-75
2021/08/13 00:51:18;;;;;;;6.95;6.25;;;24.40;62.80;;;;;;3138179;28;20143;-75
2021/08/13 00:52:50;;;;;;;6.90;6.05;;;24.40;62.80;;;;;;3137902;28;20049;-75
2021/08/13 00:54:24;;;;;;;7.00;6.30;;;24.40;62.80;;;;;;3137157;28;20057;-75
2021/08/13 00:55:55;;;;;;;7.10;6.10;;;24.40;62.80;;;;;;3137992;28;20397;-75
2021/08/13 00:57:27;;;;;;;6.40;5.80;;;24.40;63.50;;;;;;3138066;28;20041;-75
2021/08/13 00:58:59;;;;;;;6.68;6.07;;;24.40;62.80;;;;;;3138139;28;20053;-75
2021/08/13 01:00:31;;;;;;;6.38;5.78;;;24.40;62.80;;;;;;3136651;28;20048;-75
2021/08/13 01:02:03;;;;;;;6.43;5.82;;;24.40;62.80;;;;;;3138064;28;20049;-75
2021/08/13 01:03:35;;;;;;;7.05;6.18;;;24.40;62.80;;;;;;3137985;28;20049;-75
2021/08/13 01:05:07;;;;;;;7.15;6.43;;;24.40;62.80;;;;;;3136920;28;20052;-75
2021/08/13 01:06:39;;;;;;;7.53;6.00;;;24.40;62.80;;;;;;3137974;28;20064;-75
2021/08/13 01:08:11;;;;;;;7.20;6.35;;;24.40;62.80;;;;;;3137903;28;20087;-75
2021/08/13 01:09:44;;;;;;;6.70;6.03;;;24.40;62.80;;;;;;3137647;28;20049;-75
2021/08/13 01:11:17;;;;;;;6.10;5.50;;;24.40;62.80;;;;;;3137876;28;20049;-75
2021/08/13 01:12:54;;;;;;;8.15;6.03;;;24.40;62.80;;;;;;3137833;28;20053;-75
2021/08/13 01:14:28;;;;;;;6.97;6.30;;;24.40;62.80;;;;;;3137194;28;20087;-75
2021/08/13 01:16:00;;;;;;;6.25;5.65;;;24.40;62.80;;;;;;3137358;28;20106;-75
2021/08/13 01:17:34;;;;;;;6.78;6.18;;;24.40;62.80;;;;;;3138257;28;20119;-75
2021/08/13 01:19:09;;;;;;;8.05;6.00;;;24.40;62.80;;;;;;3137941;28;20057;-75
2021/08/13 01:20:51;;;;;;;6.47;5.88;;;24.40;62.80;;;;;;3137228;28;20049;-75
2021/08/13 01:22:25;;;;;;;6.18;5.57;;;24.40;62.80;;;;;;3137787;28;20102;-74
2021/08/13 01:24:00;;;;;;;6.57;5.97;;;24.40;62.80;;;;;;3137550;28;20057;-75
2021/08/13 01:25:38;;;;;;;6.47;5.88;;;24.40;62.80;;;;;;3136902;28;20114;-75
2021/08/13 01:27:11;;;;;;;7.00;6.35;;;24.40;62.80;;;;;;3138145;28;20532;-75
2021/08/13 01:28:48;;;;;;;6.82;5.68;;;24.40;62.80;;;;;;3137198;28;20046;-75
2021/08/13 01:30:20;;;;;;;7.10;6.20;;;24.40;62.80;;;;;;3136152;28;20041;-75
2021/08/13 01:32:18;;;;;;;5.97;5.45;;;24.40;62.80;;;;;;3137838;28;20387;-75
2021/08/13 01:33:52;;;;;;;6.45;5.78;;;24.30;62.80;;;;;;3124391;28;20086;-75
2021/08/13 01:35:25;;;;;;;5.78;5.28;;;24.40;62.80;;;;;;3136795;28;20041;-75
2021/08/13 01:36:58;;;;;;;6.88;6.18;;;24.30;62.80;;;;;;3137442;28;20107;-75
2021/08/13 01:38:30;;;;;;;6.40;5.80;;;24.40;63.50;;;;;;3137220;28;20490;-75
2021/08/13 01:40:01;;;;;;;6.10;5.50;;;24.30;62.80;;;;;;3128769;28;20470;-75
2021/08/13 01:41:34;;;;;;;6.20;5.60;;;24.30;62.80;;;;;;3137502;28;20053;-75
2021/08/13 01:43:05;;;;;;;6.75;5.82;;;24.40;62.80;;;;;;3137093;28;20147;-75
2021/08/13 01:44:37;;;;;;;6.43;5.72;;;24.30;62.80;;;;;;3135976;28;20750;-77
2021/08/13 01:46:09;;;;;;;5.93;5.00;;;24.30;62.80;;;;;;3134651;28;20045;-76
2021/08/13 01:47:41;;;;;;;6.78;6.05;;;24.30;62.80;;;;;;3135679;28;20064;-76
2021/08/13 01:49:14;;;;;;;6.60;6.00;;;24.30;62.90;;;;;;3135742;28;20102;-76
2021/08/13 01:50:46;;;;;;;5.88;5.38;;;24.30;62.90;;;;;;3135434;28;20053;-76
2021/08/13 01:52:18;;;;;;;6.75;5.70;;;24.30;62.90;;;;;;3135692;28;20482;-76
2021/08/13 01:53:50;;;;;;;6.47;5.88;;;24.30;62.80;;;;;;3135459;28;20052;-77
2021/08/13 01:55:22;;;;;;;6.32;5.45;;;24.30;62.90;;;;;;3134797;28;20049;-76
2021/08/13 01:56:54;;;;;;;5.88;5.32;;;24.30;62.90;;;;;;3135582;28;20414;-76
2021/08/13 01:58:26;;;;;;;6.53;5.70;;;24.30;63.00;;;;;;3135460;28;20479;-76
2021/08/13 01:59:58;;;;;;;6.28;5.78;;;24.30;62.90;;;;;;3135004;28;20421;-77
2021/08/13 02:01:30;;;;;;;7.27;5.70;;;24.30;63.00;;;;;;3134027;28;20045;-77
2021/08/13 02:03:02;;;;;;;;;;;24.30;63.00;;;;;;3136043;28;20059;-76
2021/08/13 02:04:35;;;;;;;6.55;5.93;;;24.40;63.00;;;;;;3134643;28;22149;-79
2021/08/13 02:06:07;;;;;;;5.97;5.47;;;24.30;62.80;;;;;;3135266;28;20045;-76
2021/08/13 02:07:40;;;;;;;6.07;5.47;;;24.30;62.90;;;;;;3135561;28;20049;-77
2021/08/13 02:09:11;;;;;;;;;;;24.30;62.90;;;;;;3136034;28;20048;-76
2021/08/13 02:10:43;;;;;;;6.10;5.50;;;24.30;62.90;;;;;;3134793;28;19921;-76
2021/08/13 02:12:14;;;;;;;6.05;5.45;;;24.30;62.90;;;;;;3135164;28;20045;-76
2021/08/13 02:13:46;;;;;;;6.25;5.50;;;24.30;63.00;;;;;;3135428;28;20072;-76
2021/08/13 02:15:18;;;;;;;5.78;5.22;;;24.30;63.00;;;;;;3133555;28;20098;-76
2021/08/13 02:16:51;;;;;;;6.20;5.60;;;24.30;63.00;;;;;;3135610;28;20647;-76
2021/08/13 02:18:23;;;;;;;6.28;5.60;;;24.30;63.10;;;;;;3135078;28;20094;-76
2021/08/13 02:19:58;;;;;;;6.00;5.43;;;24.30;63.00;;;;;;3134633;28;20418;-77
2021/08/13 02:21:30;;;;;;;5.80;5.30;;;24.30;63.00;;;;;;3135477;28;20353;-77
2021/08/13 02:23:02;;;;;;;6.15;5.40;;;24.30;63.00;;;;;;3135184;28;20048;-76
2021/08/13 02:24:34;;;;;;;5.63;5.13;;;24.30;63.00;;;;;;3134212;28;20173;-76
2021/08/13 02:26:05;;;;;;;6.40;5.80;;;24.30;63.10;;;;;;3135162;28;20048;-76
2021/08/13 02:27:37;;;;;;;6.15;5.55;;;24.30;63.10;;;;;;3135066;28;20060;-76
2021/08/13 02:29:09;;;;;;;6.75;5.80;;;24.30;63.10;;;;;;3135290;28;20410;-77
2021/08/13 02:30:40;;;;;;;6.03;5.40;;;24.30;63.10;;;;;;3134035;28;20045;-76
2021/08/13 02:32:12;;;;;;;6.28;5.53;;;24.30;63.10;;;;;;3135011;28;20409;-76
2021/08/13 02:33:44;;;;;;;6.47;5.88;;;24.30;63.10;;;;;;3135107;28;20057;-76
2021/08/13 02:35:17;;;;;;;6.40;5.82;;;24.30;63.10;;;;;;3133680;28;20052;-76
2021/08/13 02:36:51;;;;;;;6.97;5.50;;;24.30;63.10;;;;;;3135094;28;20076;-76
2021/08/13 02:38:24;;;;;;;6.13;5.40;;;24.30;63.20;;;;;;3134872;28;20041;-76
2021/08/13 02:39:57;;;;;;;5.82;5.30;;;24.30;63.10;;;;;;3134228;28;20461;-76
2021/08/13 02:41:31;;;;;;;6.30;5.70;;;24.30;63.10;;;;;;3134466;28;20049;-76
2021/08/13 02:43:04;;;;;;;5.93;5.43;;;24.30;63.10;;;;;;3134726;28;20061;-76
2021/08/13 02:44:36;;;;;;;6.05;5.45;;;24.30;63.10;;;;;;3133982;28;20048;-76
2021/08/13 02:46:08;;;;;;;6.25;5.45;;;24.30;63.10;;;;;;3124994;28;20045;-77
2021/08/13 02:47:39;;;;;;;6.75;5.30;;;24.30;63.10;;;;;;3122462;28;20064;-76
2021/08/13 02:49:11;;;;;;;6.00;5.50;;;24.20;63.10;;;;;;3122395;28;20442;-76
2021/08/13 02:50:44;;;;;;;5.93;5.32;;;24.30;63.10;;;;;;3121800;28;20077;-76
2021/08/13 02:52:18;;;;;;;5.40;4.90;;;24.30;63.10;;;;;;3121881;28;20060;-76
2021/08/13 02:53:50;;;;;;;5.88;5.30;;;24.30;63.20;;;;;;3122427;28;20132;-75
2021/08/13 02:55:24;;;;;;;6.10;5.50;;;24.30;63.10;;;;;;3121815;28;20060;-76
2021/08/13 02:56:56;;;;;;;6.10;5.50;;;24.20;63.10;;;;;;3122378;28;20049;-75
2021/08/13 02:58:31;;;;;;;5.95;5.40;;;24.30;63.20;;;;;;3122068;28;20107;-76
2021/08/13 03:00:03;;;;;;;5.57;5.07;;;24.20;63.10;;;;;;3121717;28;20060;-76
2021/08/13 03:01:35;;;;;;;6.47;5.32;;;24.20;63.10;;;;;;3121781;28;20140;-76
2021/08/13 03:03:07;;;;;;;6.40;5.80;;;24.20;63.10;;;;;;3122385;28;20050;-76
2021/08/13 03:04:38;;;;;;;5.95;5.35;;;24.20;63.10;;;;;;3121520;28;20430;-76
2021/08/13 03:06:12;;;;;;;7.18;5.30;;;24.20;63.10;;;;;;3122314;28;20352;-76
2021/08/13 03:07:44;;;;;;;5.60;5.00;;;24.20;63.10;;;;;;3122246;28;20080;-76
2021/08/13 03:09:16;;;;;;;6.07;5.55;;;24.20;63.10;;;;;;3121817;28;20487;-77
2021/08/13 03:10:48;;;;;;;6.32;5.40;;;24.20;63.20;;;;;;3122040;28;20514;-76
2021/08/13 03:12:20;;;;;;;5.83;5.33;;;24.20;63.20;;;;;;3122114;28;20051;-76
2021/08/13 03:13:50;;;;;;;5.45;4.95;;;24.20;63.20;;;;;;3122375;28;20652;-76
2021/08/13 03:15:22;;;;;;;5.82;5.32;;;24.20;63.10;;;;;;3120258;28;20072;-76
2021/08/13 03:16:54;;;;;;;6.28;5.47;;;24.20;63.20;;;;;;3122296;28;20122;-78
2021/08/13 03:18:33;;;;;;;5.63;5.13;;;24.20;63.20;;;;;;3122420;28;20053;-79
2021/08/13 03:20:06;;;;;;;8.15;5.60;;;24.10;63.10;;;;;;3121543;28;20045;-79
2021/08/13 03:21:39;;;;;;;6.18;5.57;;;24.20;63.20;;;;;;3121869;28;20061;-77
2021/08/13 03:23:10;;;;;;;6.47;5.88;;;24.20;63.20;;;;;;3122061;28;20111;-76
2021/08/13 03:24:42;;;;;;;6.15;5.55;;;24.10;63.20;;;;;;3121444;28;20103;-76
2021/08/13 03:26:14;;;;;;;6.60;5.30;;;24.10;63.20;;;;;;3122116;28;20056;-76
2021/08/13 03:27:46;;;;;;;6.00;5.40;;;24.10;63.10;;;;;;3121835;28;20053;-76
2021/08/13 03:29:18;;;;;;;5.68;5.18;;;24.10;63.10;;;;;;3121435;28;20489;-77
2021/08/13 03:30:49;;;;;;;6.25;5.60;;;24.20;63.20;;;;;;3121062;28;20061;-76
2021/08/13 03:32:21;;;;;;;5.22;4.72;;;24.20;63.20;;;;;;3122057;28;20042;-76
2021/08/13 03:33:53;;;;;;;5.63;5.10;;;24.10;63.10;;;;;;3122040;28;20498;-77
2021/08/13 03:35:24;;;;;;;5.90;5.30;;;24.10;63.10;;;;;;3121116;28;20056;-77
2021/08/13 03:36:58;;;;;;;5.80;5.30;;;24.10;63.10;;;;;;3121716;28;20049;-76
2021/08/13 03:38:30;;;;;;;5.90;5.40;;;24.10;63.20;;;;;;3121985;28;20057;-76
2021/08/13 03:40:02;;;;;;;5.55;5.05;;;24.10;63.20;;;;;;3113503;28;20509;-77
2021/08/13 03:41:34;;;;;;;5.35;4.85;;;24.10;63.20;;;;;;3121963;28;20084;-76
2021/08/13 03:43:06;;;;;;;5.70;5.20;;;24.10;63.20;;;;;;3122185;28;20046;-76
2021/08/13 03:44:37;;;;;;;6.38;5.78;;;24.10;63.20;;;;;;3121366;28;20057;-76
2021/08/13 03:46:09;;;;;;;6.30;5.53;;;24.10;63.20;;;;;;3138685;28;20044;-76
2021/08/13 03:47:41;;;;;;;6.15;5.03;;;24.10;63.20;;;;;;3146875;28;20055;-76
2021/08/13 03:49:12;;;;;;;5.47;4.97;;;24.10;63.20;;;;;;3146944;28;20060;-76
2021/08/13 03:50:44;;;;;;;5.57;5.07;;;24.10;63.20;;;;;;3146422;28;20048;-76
2021/08/13 03:52:17;;;;;;;5.50;5.00;;;24.10;63.20;;;;;;3146460;28;20049;-76
2021/08/13 03:53:49;;;;;;;5.80;5.30;;;24.10;63.20;;;;;;3134091;28;20056;-77
2021/08/13 03:55:21;;;;;;;5.75;5.25;;;24.10;63.20;;;;;;3124401;28;20064;-76
2021/08/13 03:56:52;;;;;;;5.78;5.28;;;24.10;63.20;;;;;;3121598;28;20107;-76
2021/08/13 03:58:24;;;;;;;5.47;4.97;;;24.10;63.20;;;;;;3121646;28;20049;-77
2021/08/13 03:59:56;;;;;;;5.50;5.00;;;24.10;63.20;;;;;;3121262;28;20042;-77
2021/08/13 04:01:27;;;;;;;5.60;5.10;;;24.10;63.20;;;;;;3120969;28;20080;-77
2021/08/13 04:02:59;;;;;;;5.45;5.05;;;24.10;63.20;;;;;;3121937;28;20064;-76
2021/08/13 04:04:31;;;;;;;6.18;5.53;;;24.10;63.20;;;;;;3121079;28;20049;-76
2021/08/13 04:06:02;;;;;;;5.82;5.28;;;24.10;63.20;;;;;;3121867;28;20454;-76
2021/08/13 04:07:35;;;;;;;5.90;5.30;;;24.00;63.10;;;;;;3122573;28;20081;-77
2021/08/13 04:09:07;;;;;;;5.88;5.28;;;24.10;63.20;;;;;;3124064;28;20450;-77
2021/08/13 04:10:39;;;;;;;5.45;4.97;;;24.10;63.20;;;;;;3135160;28;20418;-76
2021/08/13 04:12:11;;;;;;;6.03;5.43;;;24.10;63.20;;;;;;3136574;28;20048;-76
2021/08/13 04:13:42;;;;;;;6.20;5.60;;;24.00;63.20;;;;;;3136453;28;20056;-76
2021/08/13 04:15:14;;;;;;;6.13;5.28;;;24.00;63.10;;;;;;3134729;28;20056;-76
2021/08/13 04:16:46;;;;;;;7.03;5.05;;;24.10;63.20;;;;;;3136479;28;20057;-76
2021/08/13 04:18:17;;;;;;;5.82;5.22;;;24.00;63.10;;;;;;3136768;28;20417;-76
2021/08/13 04:19:49;;;;;;;5.68;5.07;;;24.00;63.20;;;;;;3135736;28;20102;-77
2021/08/13 04:21:21;;;;;;;5.97;5.43;;;24.00;63.20;;;;;;3136484;28;20131;-76
2021/08/13 04:22:54;;;;;;;5.90;5.10;;;24.00;63.20;;;;;;3136615;28;20102;-77
2021/08/13 04:24:26;;;;;;;8.00;5.50;;;24.00;63.20;;;;;;3135792;28;20060;-76
2021/08/13 04:25:57;;;;;;;5.65;5.15;;;24.00;63.20;;;;;;3135880;28;20486;-76
2021/08/13 04:27:29;;;;;;;5.90;5.30;;;24.00;63.20;;;;;;3136164;28;20053;-76
2021/08/13 04:29:01;;;;;;;5.88;5.28;;;24.00;63.20;;;;;;3128007;28;20045;-76
2021/08/13 04:30:32;;;;;;;5.50;5.00;;;24.00;63.20;;;;;;3124269;28;20354;-77
2021/08/13 04:32:05;;;;;;;5.72;5.22;;;24.00;63.20;;;;;;3123724;28;20056;-76
2021/08/13 04:33:37;;;;;;;6.05;5.38;;;24.00;63.20;;;;;;3124214;28;20521;-76
2021/08/13 04:35:09;;;;;;;5.50;5.00;;;24.00;63.20;;;;;;3123101;28;20465;-76
2021/08/13 04:36:41;;;;;;;;;;;24.00;63.20;;;;;;3124277;28;20072;-77
2021/08/13 04:38:14;;;;;;;5.72;5.22;;;24.00;63.20;;;;;;3123368;28;20291;-76
2021/08/13 04:39:46;;;;;;;5.72;5.22;;;24.00;63.80;;;;;;3123087;28;20045;-76
2021/08/13 04:41:17;;;;;;;6.43;5.82;;;24.00;63.10;;;;;;3124026;28;20054;-76
2021/08/13 04:42:49;;;;;;;5.28;4.78;;;24.00;63.10;;;;;;3124094;28;20501;-76
2021/08/13 04:44:21;;;;;;;6.20;5.60;;;24.00;63.10;;;;;;3123236;28;20383;-76
2021/08/13 04:45:52;;;;;;;5.35;4.85;;;24.00;63.10;;;;;;3135936;28;20498;-76
2021/08/13 04:47:24;;;;;;;6.38;4.90;;;24.00;63.10;;;;;;3148792;28;20358;-76
2021/08/13 04:48:56;;;;;;;5.13;4.65;;;24.00;63.10;;;;;;3148328;28;20092;-76
2021/08/13 04:50:27;;;;;;;5.72;5.20;;;24.00;63.10;;;;;;3147826;28;20052;-76
2021/08/13 04:51:59;;;;;;;5.85;5.35;;;24.00;63.10;;;;;;3148510;28;20494;-76
2021/08/13 04:53:32;;;;;;;5.90;5.32;;;24.00;63.10;;;;;;3147567;28;20435;-76
2021/08/13 04:55:04;;;;;;;5.65;5.15;;;24.00;63.20;;;;;;3128324;28;20049;-77
2021/08/13 04:56:36;;;;;;;6.18;5.20;;;24.00;63.10;;;;;;3123522;28;20061;-76
2021/08/13 04:58:08;;;;;;;5.75;5.15;;;24.00;63.20;;;;;;3123557;28;20354;-76
2021/08/13 04:59:39;;;;;;;6.15;5.55;;;23.90;63.10;;;;;;3123139;28;20387;-76
2021/08/13 05:01:11;;;;;;;5.85;5.35;;;24.00;63.10;;;;;;3122664;28;20049;-76
2021/08/13 05:02:43;;;;;;;5.68;5.18;;;23.90;63.10;;;;;;3123592;28;20049;-76
2021/08/13 05:04:15;;;;;;;5.72;5.18;;;23.90;63.10;;;;;;3123047;28;20050;-77
2021/08/13 05:05:46;;;;;;;5.72;5.20;;;23.90;63.10;;;;;;3123369;28;20076;-76
2021/08/13 05:07:18;;;;;;;5.50;5.00;;;23.90;63.10;;;;;;3123661;28;20499;-76
2021/08/13 05:08:51;;;;;;;5.45;4.95;;;24.00;63.20;;;;;;3123643;28;20419;-76
2021/08/13 05:10:23;;;;;;;5.70;5.20;;;23.90;63.10;;;;;;3122970;28;20037;-76
2021/08/13 05:11:55;;;;;;;6.80;5.00;;;23.90;63.10;;;;;;3123480;28;20050;-77
2021/08/13 05:13:28;;;;;;;5.80;5.30;;;23.90;63.10;;;;;;3123609;28;20073;-76
2021/08/13 05:15:00;;;;;;;5.72;5.13;;;23.90;63.10;;;;;;3122719;28;20060;-76
2021/08/13 05:16:32;;;;;;;5.50;5.00;;;23.90;63.10;;;;;;3134078;28;20131;-76
2021/08/13 05:18:04;;;;;;;5.45;4.95;;;23.90;63.10;;;;;;3135512;28;20052;-76
2021/08/13 05:19:35;;;;;;;5.72;5.13;;;23.90;63.10;;;;;;3134990;28;20494;-77
2021/08/13 05:21:07;;;;;;;5.90;5.40;;;23.90;63.10;;;;;;3135850;28;20440;-76
2021/08/13 05:22:39;;;;;;;5.90;5.28;;;23.90;63.10;;;;;;3135761;28;20049;-76
2021/08/13 05:24:12;;;;;;;5.50;5.00;;;23.90;63.10;;;;;;3135517;28;20498;-77
2021/08/13 05:25:43;;;;;;;5.63;5.07;;;23.90;63.10;;;;;;3135002;28;20057;-77
2021/08/13 05:27:15;;;;;;;5.88;5.13;;;23.90;63.10;;;;;;3131313;28;20049;-76
2021/08/13 05:28:47;;;;;;;5.40;4.90;;;23.90;63.10;;;;;;3135628;28;20049;-76
2021/08/13 05:30:18;;;;;;;5.70;5.20;;;23.90;63.10;;;;;;3133984;28;20045;-77
2021/08/13 05:31:50;;;;;;;5.20;4.70;;;23.90;63.10;;;;;;3134874;28;20107;-76
2021/08/13 05:33:22;;;;;;;5.68;5.18;;;24.00;63.00;;;;;;3135848;28;20515;-76
2021/08/13 05:34:53;;;;;;;6.55;5.07;;;24.00;63.20;;;;;;3134654;28;20083;-76
2021/08/13 05:36:25;;;;;;;8.75;5.13;;;24.20;62.70;;;;;;3135778;28;20049;-76
2021/08/13 05:37:58;;;;;;;8.23;5.00;;;24.30;62.50;;;;;;3135695;28;20057;-76
2021/08/13 05:39:31;;;;;;;;;;;24.30;62.20;;;;;;3135754;28;20524;-76
2021/08/13 05:41:03;;;;;;;5.38;4.88;;;24.40;62.10;;;;;;3135503;28;20328;-76
2021/08/13 05:42:34;;;;;;;8.77;5.22;;;24.40;62.20;;;;;;3135652;28;20052;-76
2021/08/13 05:44:06;;;;;;;9.63;5.03;;;24.40;62.30;;;;;;3135248;28;20052;-76
2021/08/13 05:45:38;;;;;;;12.93;5.03;;;24.40;62.80;;;;;;3133593;28;20052;-76
2021/08/13 05:47:09;;;;;;;9.73;5.80;;;24.40;62.50;;;;;;3135370;28;20123;-76
2021/08/13 05:48:41;;;;;;;9.48;7.38;;;24.30;62.70;;;;;;3135520;28;20049;-76
2021/08/13 05:50:15;;;;;;;13.60;8.20;;;24.20;63.10;;;;;;3135070;28;20095;-79
2021/08/13 05:51:47;;;;;;;11.98;8.25;;;24.10;63.10;;;;;;3135616;28;20110;-76
2021/08/13 05:53:19;;;;;;;12.77;8.38;;;24.20;63.50;;;;;;3135554;28;20486;-76
2021/08/13 05:54:52;;;;;;;13.00;8.85;;;24.10;63.10;;;;;;3134334;28;20355;-76
2021/08/13 05:56:23;;;;;;;13.63;9.18;;;24.10;63.40;;;;;;3135407;28;20056;-76
2021/08/13 05:57:55;;;;;;;18.42;9.50;;;24.10;63.40;;;;;;3134914;28;20056;-76
2021/08/13 05:59:27;;;;;;;13.50;9.93;;;24.10;63.40;;;;;;3135163;28;20735;-76
2021/08/13 06:00:58;;;;;;;18.23;10.00;;;24.10;63.60;;;;;;3134535;28;20040;-76
2021/08/13 06:02:30;;;;;;;17.95;9.52;;;24.10;63.60;;;;;;3135316;28;20099;-76
2021/08/13 06:04:02;;;;;;;13.68;8.95;;;24.10;63.70;;;;;;3134954;28;20490;-76
2021/08/13 06:05:36;;;;;;;13.05;8.68;;;24.00;63.60;;;;;;3188677;22;20055;-76
2021/08/13 06:07:07;;;;;;;13.70;8.98;;;24.00;63.70;;;;;;3133842;28;20041;-76
2021/08/13 06:08:41;;;;;;;13.80;8.50;;;24.00;63.40;;;;;;3134402;28;20048;-76
2021/08/13 06:10:15;;;;;;;11.07;8.23;;;24.00;63.10;;;;;;3133833;28;20130;-76
2021/08/13 06:11:46;;;;;;;11.90;7.85;;;24.00;63.70;;;;;;3133666;28;20061;-76
2021/08/13 06:13:18;;;;;;;10.63;7.72;;;24.00;63.40;;;;;;3134204;28;20124;-76
2021/08/13 06:14:50;;;;;;;15.85;7.18;;;24.00;63.10;;;;;;3133125;28;20052;-76
2021/08/13 06:16:22;;;;;;;9.55;7.32;;;24.00;62.90;;;;;;3133104;28;20045;-76
2021/08/13 06:17:54;;;;;;;12.10;6.93;;;24.00;62.70;;;;;;3133769;28;20425;-75
2021/08/13 06:19:26;;;;;;;12.15;7.03;;;24.00;62.80;;;;;;3133356;28;20044;-76
2021/08/13 06:20:58;;;;;;;11.38;7.57;;;23.90;63.00;;;;;;3133987;28;20051;-76
2021/08/13 06:22:29;;;;;;;12.88;7.10;;;23.90;63.10;;;;;;3134366;28;20110;-75
2021/08/13 06:24:01;;;;;;;10.00;6.68;;;23.90;63.20;;;;;;3133713;28;20387;-76
2021/08/13 06:25:34;;;;;;;11.27;7.03;;;23.90;63.20;;;;;;3133631;28;20045;-76
2021/08/13 06:27:07;;;;;;;11.73;7.30;;;24.00;63.30;;;;;;3134184;28;20045;-75
2021/08/13 06:28:39;;;;;;;8.60;6.75;;;23.90;62.50;;;;;;3134109;28;20056;-75
2021/08/13 06:30:10;;;;;;;9.43;6.63;;;23.90;62.70;;;;;;3131632;28;20460;-76
2021/08/13 06:31:42;;;;;;;8.75;6.93;;;24.00;63.10;;;;;;3134405;28;20060;-75
2021/08/13 06:33:14;;;;;;;9.43;6.72;;;24.00;62.30;;;;;;3134233;28;20057;-75
2021/08/13 06:34:46;;;;;;;12.80;6.60;;;24.00;62.60;;;;;;3133322;28;20049;-76
2021/08/13 06:36:18;;;;;;;10.70;6.57;;;24.00;63.20;;;;;;3134348;28;20127;-78
2021/08/13 06:37:51;;;;;;;9.43;6.07;;;24.00;62.90;;;;;;3134053;28;20107;-76
2021/08/13 06:39:23;;;;;;;9.02;5.95;;;24.00;62.20;;;;;;3133097;28;20059;-75
2021/08/13 06:40:59;;;;;;;11.48;6.75;;;24.00;62.20;;;;;;3133300;28;20409;-76
2021/08/13 06:42:30;;;;;;;10.32;6.07;;;24.00;61.70;;;;;;3133304;28;20075;-76
2021/08/13 06:44:02;;;;;;;11.40;6.50;;;24.00;61.70;;;;;;3133674;28;20045;-75
2021/08/13 06:45:34;;;;;;;10.77;6.55;;;24.00;62.40;;;;;;3124592;28;20490;-75
2021/08/13 06:47:06;;;;;;;12.13;6.28;;;24.00;62.90;;;;;;3134194;28;20048;-75
2021/08/13 06:48:37;;;;;;;10.90;5.90;;;24.00;62.60;;;;;;3134118;28;20605;-75
2021/08/13 06:50:10;;;;;;;13.18;6.15;;;24.10;62.40;;;;;;3133454;28;20095;-75
2021/08/13 06:51:41;;;;;;;8.23;5.60;;;24.10;62.40;;;;;;3134027;28;20049;-76
2021/08/13 06:53:13;;;;;;;8.70;5.82;;;24.10;62.20;;;;;;3134101;28;20106;-75
2021/08/13 06:54:45;;;;;;;13.13;5.78;;;24.10;62.10;;;;;;3133303;28;20417;-75
2021/08/13 06:56:18;;;;;;;8.73;5.50;;;24.10;61.90;;;;;;3130042;28;20163;-77
2021/08/13 06:57:50;;;;;;;9.38;5.10;;;24.10;61.90;;;;;;3132186;28;20060;-75
2021/08/13 06:59:22;;;;;;;7.87;4.93;;;24.10;61.80;;;;;;3133596;28;20049;-76
2021/08/13 07:00:53;;;;;;;7.95;5.20;;;24.10;61.80;;;;;;3133132;28;20045;-75
2021/08/13 07:02:25;;;;;;;5.75;5.15;;;24.00;61.60;;;;;;3134150;28;20394;-75
2021/08/13 07:03:57;;;;;;;8.68;4.82;;;24.00;61.60;;;;;;3123533;28;20057;-78
2021/08/13 07:05:29;;;;;;;5.25;4.70;;;24.00;61.70;;;;;;3121913;28;20048;-76
2021/08/13 07:07:00;;;;;;;8.23;4.85;;;24.00;61.60;;;;;;3122271;28;20049;-75
2021/08/13 07:08:32;;;;;;;6.78;4.72;;;24.00;61.10;;;;;;3121962;28;20064;-75
2021/08/13 07:10:04;;;;;;;5.03;4.35;;;24.00;61.30;;;;;;3121633;28;20383;-76
2021/08/13 07:11:38;;;;;;;5.35;4.85;;;24.00;61.10;;;;;;3122287;28;20088;-76
2021/08/13 07:13:09;;;;;;;6.40;4.93;;;24.00;61.30;;;;;;3122366;28;20049;-75
2021/08/13 07:14:41;;;;;;;6.10;4.63;;;24.00;61.10;;;;;;3120914;28;20041;-76
2021/08/13 07:16:13;;;;;;;7.80;4.82;;;24.00;61.10;;;;;;3120719;28;20678;-75
2021/08/13 07:17:44;;;;;;;7.78;5.00;;;24.00;60.90;;;;;;3126691;28;20057;-76
2021/08/13 07:19:16;;;;;;;6.43;4.50;;;24.00;60.90;;;;;;3134162;28;20059;-76
2021/08/13 07:20:48;;;;;;;5.22;4.60;;;24.00;60.60;;;;;;3134073;28;20053;-75
2021/08/13 07:22:19;;;;;;;5.10;4.60;;;24.00;60.70;;;;;;3134165;28;20049;-75
2021/08/13 07:23:51;;;;;;;5.38;4.47;;;24.00;60.40;;;;;;3134233;28;20089;-75
2021/08/13 07:25:23;;;;;;;5.05;4.25;;;24.00;60.40;;;;;;3133440;28;20048;-75
2021/08/13 07:26:56;;;;;;;6.55;4.57;;;23.90;60.20;;;;;;3134245;28;20067;-75
2021/08/13 07:28:28;;;;;;;4.90;4.40;;;23.90;60.30;;;;;;3135453;28;20489;-78
2021/08/13 07:30:00;;;;;;;6.00;4.90;;;23.90;60.10;;;;;;3133290;28;20045;-76
2021/08/13 07:31:31;;;;;;;5.25;4.70;;;23.90;60.00;;;;;;3133088;28;20076;-75
2021/08/13 07:33:03;;;;;;;5.57;4.57;;;23.90;60.10;;;;;;3134239;28;20422;-76
2021/08/13 07:34:35;;;;;;;5.95;4.60;;;23.90;59.90;;;;;;3133312;28;20053;-75
2021/08/13 07:36:07;;;;;;;4.78;4.25;;;23.90;60.00;;;;;;3134168;28;20114;-75
2021/08/13 07:37:39;;;;;;;4.97;4.45;;;23.90;59.80;;;;;;3134380;28;20045;-75
2021/08/13 07:39:10;;;;;;;5.38;4.43;;;23.90;59.60;;;;;;3134192;28;20128;-75
2021/08/13 07:40:42;;;;;;;5.10;4.38;;;23.90;59.50;;;;;;3133348;28;20056;-75
2021/08/13 07:42:15;;;;;;;5.68;4.32;;;23.90;59.50;;;;;;3136041;28;20494;-75
2021/08/13 07:43:47;;;;;;;4.93;4.43;;;23.90;59.30;;;;;;3136521;28;20049;-75
2021/08/13 07:45:19;;;;;;;5.57;4.63;;;23.90;59.40;;;;;;3134769;28;20052;-75
2021/08/13 07:46:51;;;;;;;5.03;4.45;;;23.90;59.10;;;;;;3136793;28;20053;-75
2021/08/13 07:48:23;;;;;;;4.93;4.43;;;23.90;59.20;;;;;;3136901;28;20143;-75
2021/08/13 07:49:55;;;;;;;5.03;4.40;;;23.90;59.20;;;;;;3134351;28;20063;-77
2021/08/13 07:51:27;;;;;;;5.68;4.18;;;23.90;59.00;;;;;;3136094;28;20044;-77
2021/08/13 07:52:59;;;;;;;4.88;4.38;;;23.90;58.90;;;;;;3136461;28;20494;-77
2021/08/13 07:54:31;;;;;;;5.70;3.90;;;23.90;58.80;;;;;;3135081;28;20402;-77
2021/08/13 07:56:03;;;;;;;4.43;4.03;;;23.90;58.90;;;;;;3133304;28;20048;-77
2021/08/13 07:57:36;;;;;;;4.78;4.38;;;23.90;58.90;;;;;;3132190;28;20049;-77
2021/08/13 07:59:07;;;;;;;4.65;4.03;;;23.90;58.60;;;;;;3136148;28;20084;-77